Wetterdaten: Woche 04.05.20 - 10.05.20 (KW19)
Datum Zeit Temp. Aussen Temp. o. S. Temp +5cm Feuchte Auss Luftdruck Regen Sonnenschein Regendauer Solar Windben Empfang
04.05.2020 00:00 13,2 C 11,6 C 11,0 C 79 % 1017,1 hPa 0,0 l/m 0,00 h 0,10 h 0 W/m 0,0 km/h (0 Bft) 98,00 %
04.05.2020 01:00 12,6 C 10,3 C 10,0 C 83 % 1017,0 hPa 0,0 l/m 0,00 h 0,57 h 0 W/m 0,0 km/h (0 Bft) 96,72 %
04.05.2020 02:00 12,1 C 10,0 C 9,6 C 87 % 1016,6 hPa 0,2 l/m 0,00 h 0,00 h 0 W/m 0,0 km/h (0 Bft) 97,49 %
04.05.2020 03:00 11,6 C 10,0 C 9,4 C 90 % 1016,2 hPa 0,0 l/m 0,00 h 0,00 h 0 W/m 0,0 km/h (0 Bft) 97,65 %
04.05.2020 04:00 11,3 C 10,0 C 9,4 C 92 % 1016,1 hPa 0,0 l/m 0,00 h 0,03 h 0 W/m 0,0 km/h (0 Bft) 96,34 %
04.05.2020 05:00 11,0 C 9,3 C 9,0 C 92 % 1016,0 hPa 0,2 l/m 0,00 h 0,60 h 0 W/m 0,0 km/h (0 Bft) 97,15 %
04.05.2020 06:00 10,7 C 9,2 C 9,1 C 93 % 1016,2 hPa 0,2 l/m 0,00 h 0,23 h 8 W/m 0,3 km/h (0 Bft) 98,68 %
04.05.2020 07:00 10,4 C 9,1 C 9,0 C 95 % 1016,6 hPa 0,0 l/m 0,00 h 0,00 h 23 W/m 1,8 km/h (1 Bft) 98,79 %
04.05.2020 08:00 10,3 C 9,4 C 9,2 C 95 % 1017,1 hPa 0,0 l/m 0,00 h 0,00 h 48 W/m 1,8 km/h (1 Bft) 94,38 %
04.05.2020 09:00 10,6 C 10,2 C 9,9 C 95 % 1017,4 hPa 0,0 l/m 0,00 h 0,00 h 78 W/m 2,4 km/h (1 Bft) 98,58 %
04.05.2020 10:00 11,0 C 11,1 C 10,2 C 93 % 1017,9 hPa 0,0 l/m 0,00 h 0,00 h 99 W/m 1,3 km/h (1 Bft) 97,58 %
04.05.2020 11:00 12,2 C 14,3 C 12,5 C 90 % 1018,4 hPa 0,0 l/m 0,17 h 0,00 h 273 W/m 3,9 km/h (1 Bft) 97,15 %
04.05.2020 12:00 14,2 C 15,6 C 14,4 C 83 % 1018,6 hPa 0,0 l/m 0,03 h 0,00 h 313 W/m 3,9 km/h (1 Bft) 98,45 %
04.05.2020 13:00 15,7 C 19,5 C 18,7 C 76 % 1018,7 hPa 0,0 l/m 0,90 h 0,00 h 597 W/m 6,9 km/h (2 Bft) 98,43 %
04.05.2020 14:00 16,8 C 20,1 C 18,6 C 70 % 1019,0 hPa 0,0 l/m 0,63 h 0,00 h 484 W/m 7,2 km/h (2 Bft) 97,29 %
04.05.2020 15:00 17,8 C 21,8 C 17,8 C 63 % 1019,2 hPa 0,0 l/m 0,73 h 0,00 h 678 W/m 8,6 km/h (2 Bft) 96,09 %
04.05.2020 16:00 18,7 C 22,0 C 18,2 C 57 % 1019,1 hPa 0,0 l/m 0,90 h 0,00 h 686 W/m 8,1 km/h (2 Bft) 99,71 %
04.05.2020 17:00 18,7 C 20,8 C 17,2 C 54 % 1019,0 hPa 0,0 l/m 0,87 h 0,00 h 506 W/m 7,5 km/h (2 Bft) 97,44 %
04.05.2020 18:00 18,1 C 18,8 C 15,3 C 54 % 1019,0 hPa 0,0 l/m 0,97 h 0,00 h 392 W/m 5,6 km/h (1 Bft) 97,02 %
04.05.2020 19:00 15,9 C 14,4 C 13,3 C 57 % 1019,0 hPa 0,0 l/m 0,10 h 0,00 h 70 W/m 7,0 km/h (2 Bft) 98,58 %
04.05.2020 20:00 14,1 C 12,4 C 11,6 C 62 % 1019,3 hPa 0,0 l/m 0,00 h 0,00 h 21 W/m 3,7 km/h (1 Bft) 95,80 %
04.05.2020 21:00 12,5 C 10,6 C 10,0 C 67 % 1019,7 hPa 0,0 l/m 0,00 h 0,00 h 3 W/m 1,6 km/h (1 Bft) 97,01 %
04.05.2020 22:00 11,2 C 9,8 C 9,3 C 71 % 1020,4 hPa 0,0 l/m 0,00 h 0,00 h 0 W/m 5,8 km/h (2 Bft) 98,79 %
04.05.2020 23:00 10,2 C 8,7 C 8,5 C 74 % 1021,1 hPa 0,0 l/m 0,00 h 0,00 h 0 W/m 4,1 km/h (1 Bft) 98,36 %
05.05.2020 00:00 9,2 C 7,7 C 7,3 C 76 % 1021,7 hPa 0,0 l/m 0,00 h 0,00 h 0 W/m 2,1 km/h (1 Bft) 93,94 %
05.05.2020 01:00 8,2 C 6,7 C 6,4 C 79 % 1021,8 hPa 0,0 l/m 0,00 h 0,00 h 0 W/m 1,0 km/h (0 Bft) 97,73 %
05.05.2020 02:00 7,4 C 6,1 C 5,7 C 82 % 1021,0 hPa 0,0 l/m 0,00 h 0,00 h 0 W/m 2,1 km/h (1 Bft) 98,86 %
05.05.2020 03:00 6,8 C 5,7 C 5,3 C 84 % 1021,1 hPa 0,0 l/m 0,00 h 0,00 h 0 W/m 2,2 km/h (1 Bft) 95,65 %
05.05.2020 04:00 6,3 C 5,0 C 4,7 C 85 % 1021,2 hPa 0,0 l/m 0,00 h 0,00 h 0 W/m 1,3 km/h (1 Bft) 97,00 %
05.05.2020 05:00 5,6 C 4,3 C 3,8 C 87 % 1021,5 hPa 0,0 l/m 0,00 h 0,00 h 4 W/m 1,1 km/h (0 Bft) 97,12 %
05.05.2020 06:00 5,1 C 4,4 C 4,1 C 88 % 1021,3 hPa 0,0 l/m 0,00 h 0,00 h 21 W/m 2,2 km/h (1 Bft) 96,31 %
05.05.2020 07:00 5,7 C 5,9 C 5,2 C 89 % 1021,6 hPa 0,0 l/m 0,00 h 0,00 h 44 W/m 6,0 km/h (2 Bft) 98,42 %
05.05.2020 08:00 7,2 C 10,3 C 7,3 C 85 % 1021,8 hPa 0,0 l/m 0,50 h 0,00 h 214 W/m 9,3 km/h (2 Bft) 97,45 %
05.05.2020 09:00 10,1 C 14,3 C 17,9 C 74 % 1021,7 hPa 0,0 l/m 1,00 h 0,00 h 486 W/m 8,5 km/h (2 Bft) 97,80 %
05.05.2020 10:00 12,0 C 16,8 C 20,6 C 64 % 1021,9 hPa 0,0 l/m 1,00 h 0,00 h 647 W/m 7,5 km/h (2 Bft) 97,55 %
05.05.2020 11:00 13,9 C 19,2 C 17,9 C 55 % 1021,8 hPa 0,0 l/m 1,00 h 0,00 h 832 W/m 8,5 km/h (2 Bft) 95,35 %
05.05.2020 12:00 15,0 C 20,6 C 18,0 C 49 % 1021,6 hPa 0,0 l/m 1,00 h 0,00 h 904 W/m 8,3 km/h (2 Bft) 97,76 %
05.05.2020 13:00 16,9 C 22,4 C 24,5 C 48 % 1021,7 hPa 0,0 l/m 1,00 h 0,00 h 958 W/m 8,7 km/h (2 Bft) 96,10 %
05.05.2020 14:00 17,2 C 22,1 C 22,4 C 47 % 1021,3 hPa 0,0 l/m 1,00 h 0,00 h 932 W/m 8,6 km/h (2 Bft) 96,93 %
05.05.2020 15:00 17,2 C 21,5 C 17,0 C 47 % 1021,1 hPa 0,0 l/m 1,00 h 0,00 h 853 W/m 9,2 km/h (2 Bft) 99,22 %
05.05.2020 16:00 17,7 C 21,2 C 17,0 C 47 % 1021,1 hPa 0,0 l/m 1,00 h 0,00 h 727 W/m 7,3 km/h (2 Bft) 97,13 %
05.05.2020 17:00 17,6 C 19,7 C 16,1 C 46 % 1020,9 hPa 0,0 l/m 1,00 h 0,00 h 566 W/m 7,8 km/h (2 Bft) 96,31 %
05.05.2020 18:00 16,9 C 17,2 C 13,6 C 47 % 1020,8 hPa 0,0 l/m 1,00 h 0,00 h 379 W/m 7,8 km/h (2 Bft) 98,17 %
05.05.2020 19:00 14,9 C 13,1 C 12,1 C 50 % 1020,8 hPa 0,0 l/m 0,10 h 0,00 h 62 W/m 6,5 km/h (2 Bft) 97,64 %
05.05.2020 20:00 13,3 C 11,5 C 10,6 C 54 % 1021,0 hPa 0,0 l/m 0,00 h 0,00 h 20 W/m 1,5 km/h (1 Bft) 97,64 %
05.05.2020 21:00 11,7 C 9,0 C 8,2 C 60 % 1021,6 hPa 0,0 l/m 0,00 h 0,00 h 4 W/m 0,1 km/h (0 Bft) 97,44 %
05.05.2020 22:00 9,8 C 7,1 C 6,2 C 66 % 1022,3 hPa 0,0 l/m 0,00 h 0,00 h 0 W/m 0,0 km/h (0 Bft) 97,94 %
05.05.2020 23:00 8,2 C 6,3 C 5,2 C 71 % 1023,0 hPa 0,0 l/m 0,00 h 0,00 h 0 W/m 0,0 km/h (0 Bft) 98,22 %
06.05.2020 00:00 7,3 C 6,1 C 4,8 C 73 % 1023,6 hPa 0,0 l/m 0,00 h 0,00 h 0 W/m 0,0 km/h (0 Bft) 96,65 %
06.05.2020 01:00 7,0 C 6,0 C 5,0 C 75 % 1023,8 hPa 0,0 l/m 0,00 h 0,00 h 0 W/m 1,9 km/h (1 Bft) 96,36 %
06.05.2020 02:00 6,5 C 4,0 C 3,6 C 76 % 1024,0 hPa 0,0 l/m 0,00 h 0,00 h 0 W/m 0,0 km/h (0 Bft) 97,03 %
06.05.2020 03:00 5,3 C 3,6 C 2,8 C 78 % 1024,2 hPa 0,0 l/m 0,00 h 0,00 h 0 W/m 0,0 km/h (0 Bft) 97,95 %
06.05.2020 04:00 4,7 C 3,5 C 2,6 C 82 % 1024,2 hPa 0,0 l/m 0,00 h 0,00 h 0 W/m 0,0 km/h (0 Bft) 97,41 %
06.05.2020 05:00 4,2 C 2,7 C 2,0 C 83 % 1024,5 hPa 0,0 l/m 0,00 h 0,00 h 0 W/m 0,0 km/h (0 Bft) 93,53 %
06.05.2020 06:00 3,8 C 3,0 C 2,0 C 85 % 1024,8 hPa 0,0 l/m 0,00 h 0,00 h 12 W/m 0,1 km/h (0 Bft) 98,36 %
06.05.2020 07:00 4,2 C 4,8 C 3,3 C 88 % 1025,2 hPa 0,0 l/m 0,00 h 0,00 h 29 W/m 0,2 km/h (0 Bft) 95,65 %
06.05.2020 08:00 6,5 C 11,5 C 6,5 C 86 % 1025,6 hPa 0,0 l/m 0,43 h 0,00 h 193 W/m 3,5 km/h (1 Bft) 98,22 %
06.05.2020 09:00 12,4 C 17,4 C 21,0 C 64 % 1026,0 hPa 0,0 l/m 1,00 h 0,00 h 536 W/m 10,2 km/h (2 Bft) 98,23 %
06.05.2020 10:00 15,3 C 19,8 C 24,4 C 51 % 1025,9 hPa 0,0 l/m 1,00 h 0,00 h 697 W/m 14,0 km/h (3 Bft) 98,93 %
06.05.2020 11:00 16,7 C 21,7 C 19,3 C 46 % 1025,9 hPa 0,0 l/m 1,00 h 0,00 h 829 W/m 11,3 km/h (2 Bft) 97,79 %
06.05.2020 12:00 18,5 C 24,5 C 20,7 C 44 % 1025,9 hPa 0,0 l/m 1,00 h 0,00 h 913 W/m 6,1 km/h (2 Bft) 97,80 %
06.05.2020 13:00 19,5 C 24,8 C 25,8 C 43 % 1025,6 hPa 0,0 l/m 1,00 h 0,00 h 943 W/m 7,7 km/h (2 Bft) 99,53 %
06.05.2020 14:00 19,1 C 23,6 C 23,6 C 41 % 1025,3 hPa 0,0 l/m 1,00 h 0,00 h 917 W/m 12,3 km/h (3 Bft) 94,78 %
06.05.2020 15:00 19,5 C 23,9 C 19,2 C 40 % 1025,0 hPa 0,0 l/m 1,00 h 0,00 h 846 W/m 9,7 km/h (2 Bft) 98,80 %
06.05.2020 16:00 20,6 C 24,3 C 19,6 C 39 % 1024,7 hPa 0,0 l/m 1,00 h 0,00 h 721 W/m 6,9 km/h (2 Bft) 99,50 %
06.05.2020 17:00 21,0 C 23,2 C 19,1 C 41 % 1024,5 hPa 0,0 l/m 1,00 h 0,00 h 558 W/m 7,3 km/h (2 Bft) 95,30 %
06.05.2020 18:00 20,4 C 20,7 C 16,2 C 42 % 1024,4 hPa 0,0 l/m 1,00 h 0,00 h 380 W/m 4,8 km/h (1 Bft) 98,31 %
06.05.2020 19:00 18,0 C 15,9 C 14,0 C 46 % 1024,4 hPa 0,0 l/m 0,13 h 0,00 h 70 W/m 4,9 km/h (1 Bft) 97,72 %
06.05.2020 20:00 15,9 C 13,9 C 12,6 C 50 % 1024,6 hPa 0,0 l/m 0,00 h 0,00 h 20 W/m 3,0 km/h (1 Bft) 95,50 %
06.05.2020 21:00 14,3 C 11,7 C 10,6 C 56 % 1025,0 hPa 0,0 l/m 0,00 h 0,00 h 4 W/m 0,2 km/h (0 Bft) 99,42 %
06.05.2020 22:00 12,5 C 10,1 C 8,8 C 59 % 1025,4 hPa 0,0 l/m 0,00 h 0,00 h 0 W/m 0,0 km/h (0 Bft) 97,83 %
06.05.2020 23:00 11,0 C 9,2 C 7,9 C 63 % 1025,4 hPa 0,0 l/m 0,00 h 0,00 h 0 W/m 0,0 km/h (0 Bft) 97,01 %
07.05.2020 00:00 10,0 C 8,8 C 7,7 C 69 % 1025,7 hPa 0,0 l/m 0,00 h 0,00 h 0 W/m 0,4 km/h (0 Bft) 97,55 %
07.05.2020 01:00 9,6 C 7,9 C 7,1 C 73 % 1026,0 hPa 0,0 l/m 0,00 h 0,00 h 0 W/m 0,2 km/h (0 Bft) 96,79 %
07.05.2020 02:00 8,8 C 6,6 C 5,9 C 75 % 1026,0 hPa 0,0 l/m 0,00 h 0,00 h 0 W/m 0,0 km/h (0 Bft) 95,54 %
07.05.2020 03:00 7,8 C 6,0 C 5,0 C 78 % 1025,9 hPa 0,0 l/m 0,00 h 0,00 h 0 W/m 0,0 km/h (0 Bft) 97,08 %
07.05.2020 04:00 6,9 C 4,8 C 4,2 C 80 % 1025,7 hPa 0,0 l/m 0,00 h 0,00 h 0 W/m 0,0 km/h (0 Bft) 99,26 %
07.05.2020 05:00 5,9 C 4,2 C 3,6 C 82 % 1025,4 hPa 0,0 l/m 0,00 h 0,00 h 0 W/m 0,0 km/h (0 Bft) 97,03 %
07.05.2020 06:00 5,3 C 4,1 C 3,5 C 85 % 1025,2 hPa 0,0 l/m 0,00 h 0,00 h 13 W/m 0,0 km/h (0 Bft) 93,94 %
07.05.2020 07:00 5,5 C 6,1 C 4,6 C 90 % 1025,4 hPa 0,0 l/m 0,00 h 0,00 h 32 W/m 0,2 km/h (0 Bft) 99,22 %
07.05.2020 08:00 8,1 C 13,4 C 8,8 C 90 % 1025,6 hPa 0,0 l/m 0,40 h 0,00 h 181 W/m 2,1 km/h (1 Bft) 96,94 %
07.05.2020 09:00 13,9 C 19,3 C 22,6 C 68 % 1025,3 hPa 0,0 l/m 1,00 h 0,00 h 525 W/m 7,6 km/h (2 Bft) 95,22 %
07.05.2020 10:00 17,1 C 22,3 C 25,9 C 57 % 1025,2 hPa 0,0 l/m 1,00 h 0,00 h 690 W/m 6,7 km/h (2 Bft) 96,43 %
07.05.2020 11:00 19,4 C 25,1 C 21,9 C 51 % 1025,1 hPa 0,0 l/m 1,00 h 0,00 h 817 W/m 6,3 km/h (2 Bft) 96,87 %
07.05.2020 12:00 21,3 C 26,9 C 22,9 C 48 % 1024,8 hPa 0,0 l/m 1,00 h 0,00 h 902 W/m 6,0 km/h (2 Bft) 97,79 %
07.05.2020 13:00 22,3 C 28,0 C 28,4 C 46 % 1024,5 hPa 0,0 l/m 1,00 h 0,00 h 928 W/m 4,9 km/h (1 Bft) 98,22 %
07.05.2020 14:00 22,2 C 27,1 C 26,2 C 43 % 1023,8 hPa 0,0 l/m 1,00 h 0,00 h 908 W/m 8,3 km/h (2 Bft) 98,65 %
07.05.2020 15:00 22,9 C 27,2 C 22,2 C 42 % 1023,0 hPa 0,0 l/m 1,00 h 0,00 h 833 W/m 8,9 km/h (2 Bft) 95,51 %
07.05.2020 16:00 23,1 C 26,0 C 22,0 C 41 % 1022,3 hPa 0,0 l/m 1,00 h 0,00 h 643 W/m 7,5 km/h (2 Bft) 97,84 %
07.05.2020 17:00 23,0 C 24,7 C 21,2 C 40 % 1021,6 hPa 0,0 l/m 1,00 h 0,00 h 480 W/m 5,7 km/h (1 Bft) 99,52 %
07.05.2020 18:00 22,2 C 21,6 C 18,6 C 43 % 1021,3 hPa 0,0 l/m 0,90 h 0,00 h 219 W/m 1,2 km/h (1 Bft) 94,19 %
07.05.2020 19:00 21,0 C 19,6 C 17,2 C 46 % 1020,8 hPa 0,0 l/m 0,17 h 0,00 h 101 W/m 0,4 km/h (0 Bft) 98,85 %
07.05.2020 20:00 19,3 C 16,7 C 14,6 C 50 % 1020,6 hPa 0,0 l/m 0,00 h 0,00 h 22 W/m 0,0 km/h (0 Bft) 99,75 %
07.05.2020 21:00 16,9 C 14,0 C 12,6 C 59 % 1020,6 hPa 0,0 l/m 0,00 h 0,00 h 0 W/m 0,0 km/h (0 Bft) 95,30 %
07.05.2020 22:00 15,0 C 12,7 C 11,3 C 63 % 1020,6 hPa 0,0 l/m 0,00 h 0,00 h 0 W/m 0,0 km/h (0 Bft) 97,58 %
07.05.2020 23:00 13,7 C 11,5 C 10,4 C 67 % 1020,3 hPa 0,0 l/m 0,00 h 0,00 h 0 W/m 0,0 km/h (0 Bft) 98,08 %
08.05.2020 00:00 12,5 C 10,5 C 9,4 C 72 % 1020,2 hPa 0,0 l/m 0,00 h 0,00 h 0 W/m 0,0 km/h (0 Bft) 94,81 %
08.05.2020 01:00 11,4 C 9,4 C 8,4 C 76 % 1020,1 hPa 0,0 l/m 0,00 h 0,00 h 0 W/m 0,0 km/h (0 Bft) 97,36 %
08.05.2020 02:00 10,5 C 8,6 C 7,8 C 79 % 1019,8 hPa 0,0 l/m 0,00 h 0,00 h 0 W/m 0,0 km/h (0 Bft) 96,87 %
08.05.2020 03:00 9,5 C 7,5 C 6,9 C 80 % 1019,5 hPa 0,0 l/m 0,00 h 0,00 h 0 W/m 0,0 km/h (0 Bft) 97,65 %
08.05.2020 04:00 8,6 C 6,6 C 6,0 C 83 % 1019,2 hPa 0,0 l/m 0,00 h 0,00 h 0 W/m 0,0 km/h (0 Bft) 94,94 %
08.05.2020 05:00 7,8 C 6,2 C 5,7 C 85 % 1019,1 hPa 0,0 l/m 0,00 h 0,00 h 0 W/m 0,0 km/h (0 Bft) 98,79 %
08.05.2020 06:00 7,3 C 6,6 C 5,9 C 88 % 1019,2 hPa 0,0 l/m 0,00 h 0,00 h 22 W/m 0,2 km/h (0 Bft) 98,41 %
08.05.2020 07:00 7,8 C 8,8 C 7,7 C 92 % 1019,5 hPa 0,0 l/m 0,00 h 0,00 h 50 W/m 0,0 km/h (0 Bft) 96,02 %
08.05.2020 08:00 9,6 C 13,2 C 11,6 C 93 % 1019,7 hPa 0,0 l/m 0,17 h 0,00 h 141 W/m 1,1 km/h (0 Bft) 97,32 %
08.05.2020 09:00 13,9 C 18,8 C 20,4 C 82 % 1019,8 hPa 0,0 l/m 0,73 h 0,00 h 343 W/m 0,7 km/h (0 Bft) 97,55 %
08.05.2020 10:00 17,8 C 22,6 C 25,1 C 67 % 1019,6 hPa 0,0 l/m 1,00 h 0,00 h 587 W/m 5,0 km/h (1 Bft) 97,22 %
08.05.2020 11:00 20,9 C 26,7 C 23,2 C 55 % 1019,4 hPa 0,0 l/m 1,00 h 0,00 h 776 W/m 5,2 km/h (1 Bft) 99,64 %
08.05.2020 12:00 22,8 C 28,0 C 24,0 C 45 % 1019,0 hPa 0,0 l/m 1,00 h 0,00 h 884 W/m 8,2 km/h (2 Bft) 96,87 %
08.05.2020 13:00 23,5 C 28,6 C 28,4 C 42 % 1018,5 hPa 0,0 l/m 1,00 h 0,00 h 908 W/m 8,0 km/h (2 Bft) 94,66 %
08.05.2020 14:00 24,4 C 29,6 C 28,2 C 42 % 1017,9 hPa 0,0 l/m 1,00 h 0,00 h 890 W/m 6,9 km/h (2 Bft) 98,72 %
08.05.2020 15:00 24,2 C 25,9 C 23,3 C 42 % 1017,7 hPa 0,0 l/m 0,70 h 0,00 h 518 W/m 6,4 km/h (2 Bft) 98,07 %
08.05.2020 16:00 23,7 C 24,9 C 22,7 C 44 % 1017,1 hPa 0,0 l/m 0,70 h 0,00 h 383 W/m 3,7 km/h (1 Bft) 96,08 %
08.05.2020 17:00 23,4 C 24,9 C 22,5 C 44 % 1016,7 hPa 0,0 l/m 0,90 h 0,00 h 386 W/m 3,2 km/h (1 Bft) 97,87 %
08.05.2020 18:00 24,0 C 23,6 C 20,5 C 42 % 1016,2 hPa 0,0 l/m 0,57 h 0,00 h 251 W/m 3,4 km/h (1 Bft) 99,34 %
08.05.2020 19:00 22,3 C 20,7 C 19,3 C 46 % 1016,3 hPa 0,0 l/m 0,07 h 0,00 h 93 W/m 0,6 km/h (0 Bft) 96,44 %
08.05.2020 20:00 20,8 C 18,7 C 17,6 C 50 % 1016,0 hPa 0,0 l/m 0,10 h 0,00 h 26 W/m 0,2 km/h (0 Bft) 96,94 %
08.05.2020 21:00 19,3 C 16,8 C 15,5 C 52 % 1016,2 hPa 0,0 l/m 0,00 h 0,00 h 5 W/m 0,0 km/h (0 Bft) 99,65 %
08.05.2020 22:00 17,6 C 15,4 C 14,2 C 56 % 1016,1 hPa 0,0 l/m 0,00 h 0,00 h 0 W/m 0,2 km/h (0 Bft) 95,53 %
08.05.2020 23:00 16,3 C 14,0 C 12,9 C 60 % 1016,1 hPa 0,0 l/m 0,00 h 0,00 h 0 W/m 0,1 km/h (0 Bft) 95,94 %
09.05.2020 00:00 14,7 C 12,3 C 11,5 C 67 % 1016,1 hPa 0,0 l/m 0,00 h 0,00 h 0 W/m 0,0 km/h (0 Bft) 97,49 %
09.05.2020 01:00 13,6 C 12,2 C 11,0 C 69 % 1015,8 hPa 0,0 l/m 0,00 h 0,00 h 0 W/m 0,3 km/h (0 Bft) 97,89 %
09.05.2020 02:00 12,9 C 11,6 C 10,1 C 70 % 1015,5 hPa 0,0 l/m 0,00 h 0,00 h 0 W/m 0,0 km/h (0 Bft) 96,51 %
09.05.2020 03:00 12,3 C 11,2 C 9,9 C 71 % 1015,2 hPa 0,0 l/m 0,00 h 0,00 h 0 W/m 0,4 km/h (0 Bft) 97,58 %
09.05.2020 04:00 12,3 C 12,1 C 10,6 C 73 % 1014,9 hPa 0,0 l/m 0,00 h 0,00 h 0 W/m 0,0 km/h (0 Bft) 96,72 %
09.05.2020 05:00 12,4 C 11,0 C 10,0 C 72 % 1014,6 hPa 0,0 l/m 0,00 h 0,00 h 4 W/m 0,1 km/h (0 Bft) 97,22 %
09.05.2020 06:00 11,8 C 10,6 C 9,4 C 75 % 1014,3 hPa 0,0 l/m 0,00 h 0,00 h 17 W/m 0,4 km/h (0 Bft) 99,12 %
09.05.2020 07:00 11,7 C 12,1 C 10,7 C 79 % 1014,3 hPa 0,0 l/m 0,00 h 0,00 h 58 W/m 0,3 km/h (0 Bft) 95,87 %
09.05.2020 08:00 13,5 C 18,2 C 14,1 C 79 % 1014,1 hPa 0,0 l/m 0,37 h 0,00 h 174 W/m 1,4 km/h (1 Bft) 98,43 %
09.05.2020 09:00 18,3 C 23,0 C 25,1 C 67 % 1014,0 hPa 0,0 l/m 1,00 h 0,00 h 448 W/m 3,1 km/h (1 Bft) 98,86 %
09.05.2020 10:00 20,5 C 23,3 C 23,3 C 59 % 1013,8 hPa 0,0 l/m 1,00 h 0,00 h 427 W/m 3,3 km/h (1 Bft) 94,73 %
09.05.2020 11:00 22,0 C 26,3 C 23,7 C 59 % 1013,6 hPa 0,0 l/m 1,00 h 0,00 h 634 W/m 3,3 km/h (1 Bft) 98,15 %
09.05.2020 12:00 23,9 C 28,5 C 25,6 C 54 % 1013,3 hPa 0,0 l/m 1,00 h 0,00 h 765 W/m 4,8 km/h (1 Bft) 98,08 %
09.05.2020 13:00 25,7 C 30,6 C 29,6 C 50 % 1012,8 hPa 0,0 l/m 1,00 h 0,00 h 834 W/m 5,0 km/h (1 Bft) 97,29 %
09.05.2020 14:00 26,2 C 30,5 C 29,0 C 46 % 1012,3 hPa 0,0 l/m 1,00 h 0,00 h 820 W/m 6,0 km/h (2 Bft) 97,72 %
09.05.2020 15:00 26,9 C 31,0 C 25,7 C 45 % 1011,7 hPa 0,0 l/m 1,00 h 0,00 h 804 W/m 5,3 km/h (1 Bft) 97,72 %
09.05.2020 16:00 27,3 C 30,4 C 25,2 C 44 % 1011,0 hPa 0,0 l/m 1,00 h 0,00 h 684 W/m 5,7 km/h (1 Bft) 97,93 %
09.05.2020 17:00 27,3 C 29,3 C 24,5 C 44 % 1010,3 hPa 0,0 l/m 1,00 h 0,00 h 535 W/m 5,2 km/h (1 Bft) 96,66 %
09.05.2020 18:00 26,8 C 26,5 C 22,1 C 44 % 1009,6 hPa 0,0 l/m 1,00 h 0,00 h 339 W/m 2,9 km/h (1 Bft) 98,66 %
09.05.2020 19:00 24,7 C 22,5 C 20,2 C 46 % 1009,2 hPa 0,0 l/m 0,20 h 0,00 h 100 W/m 2,5 km/h (1 Bft) 99,50 %
09.05.2020 20:00 22,7 C 20,0 C 18,3 C 52 % 1009,2 hPa 0,0 l/m 0,00 h 0,00 h 27 W/m 0,2 km/h (0 Bft) 94,59 %
09.05.2020 21:00 20,5 C 17,2 C 15,8 C 57 % 1009,3 hPa 0,0 l/m 0,00 h 0,00 h 5 W/m 0,2 km/h (0 Bft) 99,43 %
09.05.2020 22:00 18,4 C 15,7 C 14,3 C 63 % 1009,1 hPa 0,0 l/m 0,00 h 0,00 h 0 W/m 0,1 km/h (0 Bft) 98,29 %
09.05.2020 23:00 16,7 C 14,6 C 13,5 C 68 % 1008,9 hPa 0,0 l/m 0,00 h 0,00 h 0 W/m 0,1 km/h (0 Bft) 97,44 %
10.05.2020 00:00 15,9 C 14,6 C 12,9 C 73 % 1008,6 hPa 0,0 l/m 0,00 h 0,00 h 0 W/m 2,0 km/h (1 Bft) 94,82 %
10.05.2020 01:00 15,7 C 14,8 C 13,7 C 77 % 1008,1 hPa 0,0 l/m 0,00 h 0,00 h 0 W/m 3,8 km/h (1 Bft) 98,72 %
10.05.2020 02:00 15,6 C 14,2 C 13,7 C 79 % 1007,8 hPa 0,0 l/m 0,00 h 0,00 h 0 W/m 7,0 km/h (2 Bft) 97,51 %
10.05.2020 03:00 14,9 C 13,4 C 13,0 C 82 % 1007,4 hPa 0,0 l/m 0,00 h 0,00 h 0 W/m 1,8 km/h (1 Bft) 97,44 %
10.05.2020 04:00 14,3 C 12,8 C 12,3 C 85 % 1006,9 hPa 0,0 l/m 0,00 h 0,00 h 0 W/m 1,8 km/h (1 Bft) 95,91 %
10.05.2020 05:00 13,4 C 11,6 C 11,0 C 86 % 1006,5 hPa 0,0 l/m 0,00 h 0,00 h 4 W/m 0,0 km/h (0 Bft) 96,01 %
10.05.2020 06:00 13,1 C 12,7 C 12,1 C 89 % 1006,3 hPa 0,0 l/m 0,00 h 0,00 h 24 W/m 0,9 km/h (0 Bft) 99,15 %
10.05.2020 07:00 13,7 C 14,1 C 13,4 C 89 % 1006,2 hPa 0,0 l/m 0,00 h 0,00 h 75 W/m 4,6 km/h (1 Bft) 98,36 %
10.05.2020 08:00 15,1 C 16,0 C 15,3 C 86 % 1006,2 hPa 0,0 l/m 0,00 h 0,00 h 130 W/m 6,9 km/h (2 Bft) 95,17 %
10.05.2020 09:00 16,6 C 17,9 C 17,6 C 81 % 1006,0 hPa 0,0 l/m 0,37 h 0,00 h 242 W/m 10,8 km/h (2 Bft) 99,48 %
10.05.2020 10:00 19,1 C 22,3 C 23,3 C 71 % 1005,8 hPa 0,0 l/m 0,83 h 0,00 h 521 W/m 12,8 km/h (3 Bft) 97,47 %
10.05.2020 11:00 20,4 C 21,4 C 20,8 C 67 % 1005,6 hPa 0,0 l/m 0,20 h 0,00 h 310 W/m 5,9 km/h (2 Bft) 96,10 %
10.05.2020 12:00 20,6 C 21,0 C 20,1 C 67 % 1005,3 hPa 0,0 l/m 0,00 h 0,00 h 247 W/m 3,8 km/h (1 Bft) 99,19 %
10.05.2020 13:00 20,6 C 20,3 C 19,5 C 69 % 1005,4 hPa 0,0 l/m 0,00 h 0,23 h 191 W/m 1,4 km/h (1 Bft) 97,16 %
10.05.2020 14:00 20,4 C 18,9 C 17,3 C 76 % 1005,3 hPa 0,2 l/m 0,00 h 0,70 h 210 W/m 0,1 km/h (0 Bft) 96,82 %
10.05.2020 15:00 20,0 C 18,5 C 17,4 C 80 % 1005,4 hPa 0,2 l/m 0,13 h 0,50 h 197 W/m 1,1 km/h (0 Bft) 97,85 %
10.05.2020 16:00 19,7 C 18,7 C 17,5 C 84 % 1005,1 hPa 0,0 l/m 0,00 h 0,17 h 127 W/m 0,2 km/h (0 Bft) 98,34 %
10.05.2020 17:00 18,9 C 18,4 C 17,1 C 82 % 1005,0 hPa 0,0 l/m 0,00 h 0,03 h 97 W/m 0,0 km/h (0 Bft) 96,37 %
10.05.2020 18:00 18,9 C 19,2 C 18,0 C 81 % 1005,0 hPa 0,0 l/m 0,00 h 0,00 h 117 W/m 0,1 km/h (0 Bft) 96,98 %
10.05.2020 19:00 19,0 C 18,1 C 17,0 C 78 % 1004,9 hPa 0,0 l/m 0,00 h 0,00 h 47 W/m 2,7 km/h (1 Bft) 99,12 %
10.05.2020 20:00 16,0 C 14,0 C 14,0 C 81 % 1006,1 hPa 0,0 l/m 0,00 h 0,00 h 11 W/m 14,7 km/h (3 Bft) 96,80 %
10.05.2020 21:00 12,5 C 11,0 C 11,3 C 85 % 1007,7 hPa 0,0 l/m 0,00 h 0,00 h 0 W/m 16,4 km/h (3 Bft) 95,73 %
10.05.2020 22:00 10,4 C 8,5 C 9,0 C 89 % 1009,0 hPa 0,0 l/m 0,00 h 0,23 h 0 W/m 10,5 km/h (2 Bft) 99,72 %
10.05.2020 23:00 8,9 C 7,4 C 7,8 C 89 % 1009,6 hPa 0,0 l/m 0,00 h 0,30 h 0 W/m 11,0 km/h (2 Bft) 97,75 %
Min-Datum _ 06.05.20 06.05.20 06.05.20 06.05.20 10.05.20 - - - - 04.05.20 08.05.20
_ Min-Zeit 06:26 05:36 05:32 15:46 19:22 - - - - 00:00 00:02
Minimum _ 3,7 C 2,2 C 1,7 C 37 % 1004,7 hPa - - - - 0,0 km/h (0 Bft) 9,52 %
Max-Datum _ 09.05.20 09.05.20 07.05.20 04.05.20 07.05.20 04.05.20 04.05.20 04.05.20 04.05.20 10.05.20 04.05.20
_ Max-Zeit 16:30 13:16 13:46 09:02 01:26 02:02 18:08 06:08 13:40 21:12 00:42
Maximum _ 27,4 C 33,3 C 34,4 C 96 % 1026,1 hPa 0,2 l/m 0,07 h 0,07 h 1042 W/m 38,6 km/h
W-NW (5 Bft)
100,00 %
Durchschnitt _ 15,0 C 15,5 C 14,3 C 67 % 1018,0 hPa #1,0 l/m #57:58 h #3:44 h 375 W/m 3,5 km/h (1 Bft) 97,37 %
© 2020 W. Hausmann